createdAt,value
2023-03-07T00:00:18.576Z,49.56
2023-03-07T00:00:40.361Z,49.25
2023-03-07T00:01:02.226Z,49.08
2023-03-07T00:01:25.519Z,48.90
2023-03-07T00:01:47.135Z,48.99
2023-03-07T00:02:09.837Z,49.11
2023-03-07T00:02:31.591Z,49.11
2023-03-07T00:02:53.234Z,49.17
2023-03-07T00:03:16.995Z,49.36
2023-03-07T00:03:39.637Z,49.47
2023-03-07T00:04:01.974Z,49.61
2023-03-07T00:04:23.592Z,49.71
2023-03-07T00:04:46.067Z,49.61
2023-03-07T00:05:09.483Z,49.56
2023-03-07T00:05:32.313Z,49.46
2023-03-07T00:06:01.354Z,49.39
2023-03-07T00:06:24.863Z,49.23
2023-03-07T00:06:46.468Z,49.18
2023-03-07T00:07:08.041Z,49.09
2023-03-07T00:07:31.540Z,49.09
2023-03-07T00:07:54.092Z,48.99
2023-03-07T00:08:16.080Z,49.01
2023-03-07T00:08:37.710Z,49.12
2023-03-07T00:09:00.814Z,48.91
2023-03-07T00:09:22.642Z,49.05
2023-03-07T00:09:45.560Z,49.07
2023-03-07T00:10:08.547Z,49.03
2023-03-07T00:10:30.684Z,48.84
2023-03-07T00:10:52.319Z,48.71
2023-03-07T00:11:13.952Z,48.71
2023-03-07T00:11:36.510Z,48.59
2023-03-07T00:11:58.091Z,48.70
2023-03-07T00:12:21.672Z,48.44
2023-03-07T00:12:45.667Z,48.38
2023-03-07T00:13:07.416Z,48.17
2023-03-07T00:13:30.433Z,48.54
2023-03-07T00:13:52.639Z,48.56
2023-03-07T00:14:15.275Z,48.69
2023-03-07T00:14:36.872Z,48.74
2023-03-07T00:14:58.482Z,48.61
2023-03-07T00:15:20.034Z,48.43
2023-03-07T00:15:41.657Z,48.45
2023-03-07T00:16:04.690Z,48.27
2023-03-07T00:16:27.689Z,48.39
2023-03-07T00:16:50.074Z,48.51
2023-03-07T00:17:11.706Z,48.69
2023-03-07T00:17:35.588Z,48.89
2023-03-07T00:17:57.339Z,48.99
2023-03-07T00:18:19.924Z,48.93
2023-03-07T00:18:42.240Z,49.19
2023-03-07T00:19:05.093Z,49.10
2023-03-07T00:19:26.900Z,49.25
2023-03-07T00:19:48.477Z,49.25
2023-03-07T00:20:14.508Z,49.14
2023-03-07T00:20:36.138Z,49.45
2023-03-07T00:20:59.095Z,49.42
2023-03-07T00:21:22.346Z,49.64
2023-03-07T00:21:44.945Z,49.59
2023-03-07T00:22:07.113Z,49.71
2023-03-07T00:22:30.177Z,49.78
2023-03-07T00:22:51.789Z,49.64
2023-03-07T00:23:14.311Z,49.74
2023-03-07T00:23:37.579Z,49.94
2023-03-07T00:23:59.269Z,49.98
2023-03-07T00:24:20.908Z,50.00
2023-03-07T00:24:46.027Z,49.88
2023-03-07T00:25:08.815Z,49.78
2023-03-07T00:25:30.398Z,49.67
2023-03-07T00:25:58.694Z,49.53
2023-03-07T00:26:21.953Z,49.50
2023-03-07T00:26:43.636Z,49.26
2023-03-07T00:27:05.615Z,49.38
2023-03-07T00:27:28.192Z,49.34
2023-03-07T00:27:51.202Z,49.15
2023-03-07T00:28:12.804Z,49.08
2023-03-07T00:28:35.140Z,49.08
2023-03-07T00:28:57.765Z,49.17
2023-03-07T00:29:19.458Z,49.25
2023-03-07T00:29:41.352Z,49.44
2023-03-07T00:30:04.865Z,49.39
2023-03-07T00:30:27.783Z,49.35
2023-03-07T00:30:49.439Z,49.02
2023-03-07T00:31:11.580Z,49.31
2023-03-07T00:31:33.790Z,49.42
2023-03-07T00:31:56.675Z,49.35
2023-03-07T00:32:18.351Z,49.34
2023-03-07T00:32:40.077Z,49.28
2023-03-07T00:33:02.012Z,49.21
2023-03-07T00:33:23.683Z,49.25
2023-03-07T00:33:46.440Z,49.21
2023-03-07T00:34:08.055Z,49.10
2023-03-07T00:34:29.829Z,48.94
2023-03-07T00:34:51.497Z,48.83
2023-03-07T00:35:13.173Z,48.93
2023-03-07T00:35:35.839Z,48.82
2023-03-07T00:35:58.930Z,48.90
2023-03-07T00:36:22.080Z,48.94
2023-03-07T00:36:43.688Z,48.81
2023-03-07T00:37:06.422Z,48.92
2023-03-07T00:37:28.156Z,48.83
2023-03-07T00:37:49.798Z,48.66
2023-03-07T00:38:11.414Z,48.57
2023-03-07T00:38:34.853Z,48.65
2023-03-07T00:38:56.590Z,48.70
2023-03-07T00:39:18.178Z,48.50
2023-03-07T00:39:39.965Z,48.54
2023-03-07T00:40:02.921Z,48.67
2023-03-07T00:40:24.534Z,48.58
2023-03-07T00:40:46.234Z,48.89
2023-03-07T00:41:10.970Z,48.82
2023-03-07T00:41:33.608Z,48.96
2023-03-07T00:41:55.231Z,48.85
2023-03-07T00:42:17.085Z,48.64
2023-03-07T00:42:38.683Z,48.59
2023-03-07T00:43:01.667Z,48.58
2023-03-07T00:43:24.925Z,48.80
2023-03-07T00:43:47.183Z,48.71
2023-03-07T00:44:08.884Z,48.90
2023-03-07T00:44:32.706Z,48.89
2023-03-07T00:44:54.348Z,48.89
2023-03-07T00:45:16.394Z,48.96
2023-03-07T00:45:38.016Z,49.04
2023-03-07T00:46:01.342Z,49.08
2023-03-07T00:46:24.689Z,49.15
2023-03-07T00:46:46.240Z,49.26
2023-03-07T00:47:08.425Z,49.34
2023-03-07T00:47:31.054Z,49.21
2023-03-07T00:47:53.011Z,49.23
2023-03-07T00:48:14.708Z,49.07
2023-03-07T00:48:38.319Z,49.49
2023-03-07T00:49:01.015Z,49.51
2023-03-07T00:49:22.861Z,49.46
2023-03-07T00:49:44.487Z,49.65
2023-03-07T00:50:06.800Z,49.52
2023-03-07T00:50:28.424Z,49.36
2023-03-07T00:50:51.394Z,49.37
2023-03-07T00:51:15.609Z,49.54
2023-03-07T00:51:37.282Z,49.41
2023-03-07T00:51:59.538Z,49.37
2023-03-07T00:52:23.475Z,49.21
2023-03-07T00:52:45.189Z,49.27
2023-03-07T00:53:06.989Z,49.20
2023-03-07T00:53:28.659Z,49.32
2023-03-07T00:53:52.242Z,49.34
2023-03-07T00:54:15.289Z,49.19
2023-03-07T00:54:37.023Z,49.02
2023-03-07T00:54:58.895Z,49.26
2023-03-07T00:55:20.811Z,48.68
2023-03-07T00:55:53.849Z,48.52
2023-03-07T00:56:18.096Z,48.60
2023-03-07T00:56:40.061Z,48.54
2023-03-07T00:57:02.970Z,48.19
2023-03-07T00:57:24.987Z,48.13
2023-03-07T00:57:46.630Z,48.44
2023-03-07T00:58:09.621Z,48.68
2023-03-07T00:58:34.234Z,48.66
2023-03-07T00:58:56.079Z,48.78
2023-03-07T00:59:17.663Z,48.56
2023-03-07T00:59:39.360Z,48.56
2023-03-07T01:00:01.000Z,49.07
2023-03-07T01:00:23.712Z,49.73
2023-03-07T01:00:45.329Z,50.19
2023-03-07T01:01:09.731Z,50.54
2023-03-07T01:01:32.785Z,50.66
2023-03-07T01:01:54.410Z,50.75
2023-03-07T01:02:16.119Z,50.48
2023-03-07T01:02:37.830Z,50.48
2023-03-07T01:03:01.967Z,50.54
2023-03-07T01:03:25.471Z,50.55
2023-03-07T01:03:49.652Z,50.37
2023-03-07T01:04:11.441Z,50.49
2023-03-07T01:04:33.172Z,50.42
2023-03-07T01:04:55.778Z,50.25
2023-03-07T01:05:17.423Z,50.09
2023-03-07T01:05:39.333Z,50.00
2023-03-07T01:06:06.194Z,50.15
2023-03-07T01:06:31.438Z,49.94
2023-03-07T01:06:53.060Z,49.68
2023-03-07T01:07:14.639Z,49.68
2023-03-07T01:07:36.433Z,49.67
2023-03-07T01:07:58.039Z,49.43
2023-03-07T01:08:21.469Z,49.44
2023-03-07T01:08:43.857Z,49.53
2023-03-07T01:09:08.395Z,49.76
2023-03-07T01:09:30.030Z,49.84
2023-03-07T01:09:53.140Z,50.03
2023-03-07T01:10:17.766Z,50.32
2023-03-07T01:10:39.581Z,50.22
2023-03-07T01:11:03.832Z,50.25
2023-03-07T01:11:26.085Z,49.94
2023-03-07T01:11:50.544Z,49.91
2023-03-07T01:12:12.527Z,50.04
2023-03-07T01:12:34.159Z,49.92
2023-03-07T01:12:56.259Z,49.75
2023-03-07T01:13:21.584Z,49.65
2023-03-07T01:13:43.518Z,49.42
2023-03-07T01:14:06.405Z,49.36
2023-03-07T01:14:30.438Z,49.29
2023-03-07T01:14:53.125Z,49.33
2023-03-07T01:15:15.158Z,49.03
2023-03-07T01:15:37.451Z,49.03
2023-03-07T01:16:07.350Z,48.87
2023-03-07T01:16:32.391Z,48.96
2023-03-07T01:16:54.653Z,48.96
2023-03-07T01:17:16.571Z,48.78
2023-03-07T01:17:39.333Z,49.06
2023-03-07T01:18:02.844Z,49.07
2023-03-07T01:18:24.583Z,49.25
2023-03-07T01:18:50.365Z,49.28
2023-03-07T01:19:12.671Z,49.38
2023-03-07T01:19:35.888Z,49.52
2023-03-07T01:19:57.516Z,49.30
2023-03-07T01:20:19.416Z,49.20
2023-03-07T01:20:41.781Z,49.06
2023-03-07T01:21:11.223Z,48.92
2023-03-07T01:21:36.601Z,48.73
2023-03-07T01:21:59.137Z,48.81
2023-03-07T01:22:20.906Z,48.68
2023-03-07T01:22:42.683Z,48.65
2023-03-07T01:23:06.091Z,48.61
2023-03-07T01:23:27.769Z,48.69
2023-03-07T01:23:50.106Z,48.91
2023-03-07T01:24:14.132Z,49.01
2023-03-07T01:24:36.082Z,49.11
2023-03-07T01:24:58.912Z,48.99
2023-03-07T01:25:20.636Z,49.12
2023-03-07T01:25:43.430Z,49.03
2023-03-07T01:26:05.633Z,49.03
2023-03-07T01:26:37.671Z,49.05
2023-03-07T01:27:00.360Z,49.20
2023-03-07T01:27:21.942Z,48.97
2023-03-07T01:27:43.660Z,48.74
2023-03-07T01:28:06.197Z,49.03
2023-03-07T01:28:29.182Z,48.99
2023-03-07T01:28:53.092Z,49.04
2023-03-07T01:29:14.790Z,49.00
2023-03-07T01:29:36.615Z,49.44
2023-03-07T01:29:58.225Z,49.99
2023-03-07T01:30:21.046Z,49.88
2023-03-07T01:30:42.740Z,49.95
2023-03-07T01:31:04.771Z,49.86
2023-03-07T01:31:26.803Z,49.90
2023-03-07T01:31:49.465Z,49.98
2023-03-07T01:32:11.193Z,49.88
2023-03-07T01:32:33.647Z,49.84
2023-03-07T01:32:56.016Z,49.84
2023-03-07T01:33:19.961Z,49.72
2023-03-07T01:33:42.142Z,49.83
2023-03-07T01:34:05.052Z,49.62
2023-03-07T01:34:33.412Z,49.43
2023-03-07T01:34:55.108Z,49.59
2023-03-07T01:35:17.068Z,49.42
2023-03-07T01:35:39.986Z,49.48
2023-03-07T01:36:01.811Z,49.35
2023-03-07T01:36:29.947Z,49.30
2023-03-07T01:36:56.890Z,49.20
2023-03-07T01:37:19.137Z,49.06
2023-03-07T01:37:41.432Z,49.17
2023-03-07T01:38:05.319Z,49.17
2023-03-07T01:38:28.863Z,49.17
2023-03-07T01:38:54.775Z,48.99
2023-03-07T01:39:17.304Z,48.89
2023-03-07T01:39:53.650Z,48.94
2023-03-07T01:40:16.575Z,48.94
2023-03-07T01:40:38.797Z,48.90
2023-03-07T01:41:01.511Z,48.86
2023-03-07T01:41:25.198Z,49.37
2023-03-07T01:41:47.780Z,49.20
2023-03-07T01:42:10.700Z,49.16
2023-03-07T01:42:32.603Z,48.99
2023-03-07T01:43:22.198Z,48.78
2023-03-07T01:43:46.611Z,48.57
2023-03-07T01:44:16.847Z,48.79
2023-03-07T01:45:01.212Z,48.95
2023-03-07T01:46:23.730Z,49.40
2023-03-07T01:46:52.764Z,48.91
2023-03-07T01:47:15.228Z,48.75
2023-03-07T01:47:45.231Z,48.96
2023-03-07T01:48:07.511Z,49.00
2023-03-07T01:48:29.323Z,49.10
2023-03-07T01:48:54.907Z,49.32
2023-03-07T01:49:21.781Z,49.17
2023-03-07T01:49:47.276Z,48.83
2023-03-07T01:50:14.907Z,48.88
2023-03-07T01:50:36.590Z,49.28
2023-03-07T01:50:58.485Z,49.22
2023-03-07T01:51:20.769Z,49.38
2023-03-07T01:51:48.709Z,49.42
2023-03-07T01:52:15.011Z,49.56
2023-03-07T01:52:45.788Z,49.46
2023-03-07T01:53:08.688Z,49.58
2023-03-07T01:53:31.420Z,49.40
2023-03-07T01:53:55.647Z,49.84
2023-03-07T01:54:20.609Z,49.79
2023-03-07T01:54:48.691Z,49.96
2023-03-07T01:55:16.439Z,49.81
2023-03-07T01:55:39.430Z,49.60
2023-03-07T01:56:10.807Z,49.55
2023-03-07T01:56:33.958Z,49.58
2023-03-07T01:56:56.720Z,49.58
2023-03-07T01:57:20.426Z,49.78
2023-03-07T01:57:45.653Z,49.71
2023-03-07T01:58:10.613Z,49.87
2023-03-07T01:58:32.457Z,49.62
2023-03-07T01:58:55.731Z,49.61
2023-03-07T01:59:25.646Z,49.64
2023-03-07T01:59:50.901Z,49.54
2023-03-07T02:00:22.370Z,49.53
2023-03-07T02:00:44.956Z,49.22
2023-03-07T02:01:10.417Z,48.98
2023-03-07T02:01:33.345Z,48.99
2023-03-07T02:01:56.112Z,48.93
2023-03-07T02:02:22.597Z,48.89
2023-03-07T02:02:48.446Z,48.99
2023-03-07T02:03:21.782Z,48.65
2023-03-07T02:03:49.276Z,48.64
2023-03-07T02:04:19.265Z,48.91
2023-03-07T02:04:44.676Z,49.31
2023-03-07T02:05:11.115Z,49.11
2023-03-07T02:05:35.479Z,48.88
2023-03-07T02:06:00.764Z,48.64
2023-03-07T02:06:22.791Z,48.60
2023-03-07T02:06:44.438Z,48.70
2023-03-07T02:07:06.812Z,48.87
2023-03-07T02:07:34.333Z,49.17
2023-03-07T02:08:00.365Z,49.27
2023-03-07T02:08:27.885Z,49.26
2023-03-07T02:08:51.284Z,49.30
2023-03-07T02:09:19.603Z,49.19
2023-03-07T02:09:43.334Z,49.31
2023-03-07T02:10:06.870Z,49.21
2023-03-07T02:10:30.758Z,49.20
2023-03-07T02:10:53.630Z,49.23
2023-03-07T02:11:16.601Z,49.30
2023-03-07T02:11:41.071Z,49.10
2023-03-07T02:12:04.596Z,49.20
2023-03-07T02:12:27.034Z,49.13
2023-03-07T02:12:50.453Z,49.15
2023-03-07T02:13:12.583Z,49.15
2023-03-07T02:13:36.068Z,49.30
2023-03-07T02:13:59.060Z,49.27
2023-03-07T02:14:20.712Z,49.36
2023-03-07T02:14:44.172Z,49.30
2023-03-07T02:15:09.704Z,49.25
2023-03-07T02:15:33.581Z,49.23
2023-03-07T02:15:56.210Z,49.34
2023-03-07T02:16:18.083Z,49.29
2023-03-07T02:16:40.983Z,49.01
2023-03-07T02:17:04.033Z,49.21
2023-03-07T02:17:27.794Z,49.02
2023-03-07T02:17:50.179Z,49.03
2023-03-07T02:18:16.803Z,49.43
2023-03-07T02:18:42.581Z,49.53
2023-03-07T02:19:11.692Z,49.58
2023-03-07T02:19:49.064Z,49.54
2023-03-07T02:20:30.186Z,49.32
2023-03-07T02:20:59.228Z,49.04
2023-03-07T02:21:32.192Z,49.19
2023-03-07T02:22:03.155Z,49.00
2023-03-07T02:22:25.950Z,48.89
2023-03-07T02:22:48.735Z,48.96
2023-03-07T02:23:18.182Z,49.04
2023-03-07T02:23:47.722Z,48.79
2023-03-07T02:24:19.058Z,48.82
2023-03-07T02:24:48.601Z,48.91
2023-03-07T02:25:19.233Z,49.24
2023-03-07T02:25:44.910Z,49.08
2023-03-07T02:26:11.860Z,49.08
2023-03-07T02:26:43.976Z,49.07
2023-03-07T02:27:06.924Z,49.28
2023-03-07T02:27:32.491Z,49.33
2023-03-07T02:27:57.011Z,49.60
2023-03-07T02:28:19.306Z,49.40
2023-03-07T02:28:42.691Z,49.35
2023-03-07T02:29:05.180Z,49.31
2023-03-07T02:29:28.300Z,49.02
2023-03-07T02:29:51.122Z,49.26
2023-03-07T02:30:13.222Z,49.31
2023-03-07T02:30:36.621Z,49.15
2023-03-07T02:31:06.475Z,49.26
2023-03-07T02:31:31.465Z,49.32
2023-03-07T02:31:53.048Z,49.28
2023-03-07T02:32:14.824Z,49.27
2023-03-07T02:32:36.512Z,49.31
2023-03-07T02:32:59.105Z,49.29
2023-03-07T02:33:24.756Z,49.28
2023-03-07T02:33:50.544Z,49.20
2023-03-07T02:34:23.646Z,49.33
2023-03-07T02:34:51.125Z,49.40
2023-03-07T02:35:18.698Z,49.30
2023-03-07T02:35:42.830Z,49.23
2023-03-07T02:36:08.021Z,49.24
2023-03-07T02:36:36.004Z,49.17
2023-03-07T02:37:13.322Z,48.91
2023-03-07T02:37:37.973Z,48.78
2023-03-07T02:38:04.017Z,48.93
2023-03-07T02:38:26.611Z,48.71
2023-03-07T02:38:51.297Z,48.95
2023-03-07T02:39:14.516Z,49.03
2023-03-07T02:39:36.454Z,48.98
2023-03-07T02:40:03.764Z,48.84
2023-03-07T02:40:29.487Z,48.77
2023-03-07T02:40:53.701Z,48.83
2023-03-07T02:41:19.069Z,48.86
2023-03-07T02:41:40.893Z,49.02
2023-03-07T02:42:17.324Z,49.11
2023-03-07T02:42:45.097Z,49.01
2023-03-07T02:43:09.582Z,48.72
2023-03-07T02:43:33.570Z,48.84
2023-03-07T02:43:55.298Z,48.70
2023-03-07T02:44:18.061Z,48.64
2023-03-07T02:44:39.887Z,48.32
2023-03-07T02:45:03.766Z,48.57
2023-03-07T02:45:28.392Z,48.33
2023-03-07T02:45:51.258Z,48.37
2023-03-07T02:46:12.942Z,48.30
2023-03-07T02:46:34.644Z,48.31
2023-03-07T02:46:56.282Z,48.10
2023-03-07T02:47:21.606Z,47.99
2023-03-07T02:47:45.056Z,47.71
2023-03-07T02:48:09.691Z,47.89
2023-03-07T02:48:31.596Z,48.01
2023-03-07T02:48:53.914Z,48.25
2023-03-07T02:49:17.944Z,48.40
2023-03-07T02:49:39.557Z,48.30
2023-03-07T02:50:01.409Z,48.16
2023-03-07T02:50:23.442Z,48.10
2023-03-07T02:50:48.727Z,48.25
2023-03-07T02:51:12.043Z,48.40
2023-03-07T02:51:33.796Z,48.16
2023-03-07T02:51:58.345Z,48.31
2023-03-07T02:52:21.675Z,48.11
2023-03-07T02:52:43.444Z,47.93
2023-03-07T02:53:05.260Z,47.66
2023-03-07T02:53:26.922Z,47.75
2023-03-07T02:53:49.457Z,47.77
2023-03-07T02:54:11.394Z,48.04
2023-03-07T02:54:33.054Z,48.17
2023-03-07T02:54:54.830Z,48.03
2023-03-07T02:55:18.698Z,48.39
2023-03-07T02:55:45.664Z,49.02
2023-03-07T02:56:07.955Z,49.08
2023-03-07T02:56:29.598Z,49.40
2023-03-07T02:56:51.181Z,49.79
2023-03-07T02:57:15.891Z,49.67
2023-03-07T02:57:37.659Z,49.64
2023-03-07T02:58:00.556Z,49.70
2023-03-07T02:58:23.287Z,49.62
2023-03-07T02:58:44.932Z,49.75
2023-03-07T02:59:06.676Z,49.85
2023-03-07T02:59:28.394Z,49.57
2023-03-07T02:59:50.337Z,49.80
2023-03-07T03:00:14.570Z,49.76
2023-03-07T03:00:37.154Z,49.92
2023-03-07T03:00:59.314Z,49.57
2023-03-07T03:01:20.930Z,49.69
2023-03-07T03:01:42.874Z,49.80
2023-03-07T03:02:05.598Z,49.97
2023-03-07T03:02:27.399Z,49.91
2023-03-07T03:02:49.064Z,49.89
2023-03-07T03:03:11.883Z,49.94
2023-03-07T03:03:34.678Z,50.04
2023-03-07T03:03:56.311Z,50.00
2023-03-07T03:04:18.298Z,49.78
2023-03-07T03:04:39.952Z,49.79
2023-03-07T03:05:02.760Z,49.61
2023-03-07T03:05:24.545Z,49.57
2023-03-07T03:05:47.543Z,49.45
2023-03-07T03:06:10.113Z,49.51
2023-03-07T03:06:31.701Z,49.41
2023-03-07T03:06:54.303Z,49.21
2023-03-07T03:07:15.962Z,49.34
2023-03-07T03:07:37.755Z,49.29
2023-03-07T03:07:59.371Z,49.55
2023-03-07T03:08:22.043Z,49.48
2023-03-07T03:08:43.711Z,49.67
2023-03-07T03:09:05.392Z,49.58
2023-03-07T03:09:27.552Z,49.46
2023-03-07T03:09:50.244Z,49.65
2023-03-07T03:10:12.342Z,49.37
2023-03-07T03:10:34.040Z,49.39
2023-03-07T03:10:57.745Z,49.25
2023-03-07T03:11:22.228Z,49.54
2023-03-07T03:11:43.916Z,49.37
2023-03-07T03:12:06.263Z,49.39
2023-03-07T03:12:30.296Z,49.37
2023-03-07T03:12:53.463Z,49.41
2023-03-07T03:13:15.029Z,49.61
2023-03-07T03:13:39.061Z,49.24
2023-03-07T03:14:01.462Z,49.20
2023-03-07T03:14:25.330Z,49.30
2023-03-07T03:14:46.998Z,49.54
2023-03-07T03:15:10.122Z,49.52
2023-03-07T03:15:32.276Z,49.44
2023-03-07T03:15:57.243Z,49.26
2023-03-07T03:16:18.963Z,49.12
2023-03-07T03:16:41.331Z,49.24
2023-03-07T03:17:03.861Z,49.07
2023-03-07T03:17:26.778Z,49.02
2023-03-07T03:17:48.885Z,49.00
2023-03-07T03:18:11.314Z,48.90
2023-03-07T03:18:33.022Z,49.20
2023-03-07T03:18:54.672Z,49.14
2023-03-07T03:19:17.306Z,49.37
2023-03-07T03:19:38.937Z,49.34
2023-03-07T03:20:00.636Z,49.54
2023-03-07T03:20:22.519Z,49.55
2023-03-07T03:20:45.101Z,49.68
2023-03-07T03:21:09.312Z,49.73
2023-03-07T03:21:31.065Z,49.82
2023-03-07T03:21:54.352Z,49.53
2023-03-07T03:22:17.113Z,49.57
2023-03-07T03:22:41.890Z,49.75
2023-03-07T03:23:04.489Z,49.62
2023-03-07T03:23:28.206Z,49.50
2023-03-07T03:23:50.879Z,49.76
2023-03-07T03:24:12.647Z,49.63
2023-03-07T03:24:38.244Z,49.94
2023-03-07T03:25:00.425Z,49.87
2023-03-07T03:25:24.377Z,49.71
2023-03-07T03:25:47.403Z,49.66
2023-03-07T03:26:11.606Z,49.58
2023-03-07T03:26:33.365Z,49.51
2023-03-07T03:26:55.918Z,49.37
2023-03-07T03:27:17.589Z,49.35
2023-03-07T03:27:43.457Z,49.32
2023-03-07T03:28:06.013Z,49.28
2023-03-07T03:28:29.002Z,49.18
2023-03-07T03:28:54.351Z,49.58
2023-03-07T03:29:17.045Z,49.57
2023-03-07T03:29:39.053Z,49.84
2023-03-07T03:30:01.682Z,50.07
2023-03-07T03:30:26.593Z,50.29
2023-03-07T03:30:57.215Z,50.37
2023-03-07T03:31:19.854Z,50.40
2023-03-07T03:31:41.689Z,50.78
2023-03-07T03:32:04.019Z,51.06
2023-03-07T03:32:26.032Z,51.00
2023-03-07T03:32:47.717Z,50.79
2023-03-07T03:33:12.807Z,50.75
2023-03-07T03:33:34.778Z,50.60
2023-03-07T03:33:56.758Z,50.94
2023-03-07T03:34:18.641Z,51.18
2023-03-07T03:34:41.600Z,51.06
2023-03-07T03:35:04.117Z,50.76
2023-03-07T03:35:25.907Z,50.71
2023-03-07T03:35:50.693Z,50.85
2023-03-07T03:36:17.098Z,50.73
2023-03-07T03:36:41.452Z,50.65
2023-03-07T03:37:04.691Z,50.39
2023-03-07T03:37:28.074Z,50.40
2023-03-07T03:37:50.397Z,50.29
2023-03-07T03:38:12.045Z,50.20
2023-03-07T03:38:34.941Z,50.09
2023-03-07T03:38:59.569Z,49.89
2023-03-07T03:39:21.621Z,50.31
2023-03-07T03:39:47.993Z,50.32
2023-03-07T03:40:14.566Z,50.09
2023-03-07T03:40:39.402Z,50.48
2023-03-07T03:41:04.161Z,50.76
2023-03-07T03:41:26.450Z,50.91
2023-03-07T03:41:48.611Z,51.10
2023-03-07T03:42:12.620Z,51.00
2023-03-07T03:42:34.257Z,50.79
2023-03-07T03:42:58.352Z,50.58
2023-03-07T03:43:20.691Z,50.53
2023-03-07T03:43:43.257Z,50.32
2023-03-07T03:44:04.970Z,50.17
2023-03-07T03:44:27.136Z,50.37
2023-03-07T03:44:49.604Z,50.55
2023-03-07T03:45:14.676Z,50.32
2023-03-07T03:45:36.241Z,50.52
2023-03-07T03:45:58.384Z,50.59
2023-03-07T03:46:21.917Z,50.72
2023-03-07T03:46:44.703Z,50.86
2023-03-07T03:47:06.445Z,51.08
2023-03-07T03:47:28.061Z,51.27
2023-03-07T03:47:51.036Z,51.01
2023-03-07T03:48:12.855Z,51.04
2023-03-07T03:48:35.445Z,51.20
2023-03-07T03:48:57.263Z,51.02
2023-03-07T03:49:21.670Z,51.18
2023-03-07T03:49:45.350Z,51.01
2023-03-07T03:50:07.944Z,50.90
2023-03-07T03:50:30.813Z,50.69
2023-03-07T03:51:00.608Z,50.65
2023-03-07T03:51:23.696Z,50.67
2023-03-07T03:51:47.244Z,50.89
2023-03-07T03:52:10.461Z,51.04
2023-03-07T03:52:32.158Z,50.94
2023-03-07T03:52:53.773Z,50.62
2023-03-07T03:53:15.447Z,50.57
2023-03-07T03:53:40.426Z,50.49
2023-03-07T03:54:02.026Z,50.47
2023-03-07T03:54:23.615Z,50.54
2023-03-07T03:54:45.612Z,50.48
2023-03-07T03:55:07.811Z,50.48
2023-03-07T03:55:30.473Z,50.29
2023-03-07T03:55:52.077Z,50.42
2023-03-07T03:56:16.586Z,50.40
2023-03-07T03:56:38.236Z,50.38
2023-03-07T03:57:00.825Z,50.42
2023-03-07T03:57:24.171Z,50.68
2023-03-07T03:57:45.785Z,50.69
2023-03-07T03:58:08.714Z,50.60
2023-03-07T03:58:30.658Z,50.68
2023-03-07T03:58:55.179Z,50.53
2023-03-07T03:59:16.975Z,50.46
2023-03-07T03:59:38.617Z,50.16
2023-03-07T04:00:00.475Z,50.38
2023-03-07T04:00:23.682Z,50.43
2023-03-07T04:00:45.422Z,50.66
2023-03-07T04:01:09.262Z,50.62
2023-03-07T04:01:31.812Z,50.62
2023-03-07T04:01:55.059Z,50.52
2023-03-07T04:02:17.063Z,50.69
2023-03-07T04:02:39.101Z,50.49
2023-03-07T04:03:02.697Z,50.47
2023-03-07T04:03:25.529Z,50.46
2023-03-07T04:03:50.139Z,50.80
2023-03-07T04:04:12.645Z,50.81
2023-03-07T04:04:34.344Z,50.44
2023-03-07T04:04:56.874Z,50.56
2023-03-07T04:05:18.558Z,50.37
2023-03-07T04:05:40.222Z,50.63
2023-03-07T04:06:02.194Z,50.77
2023-03-07T04:06:26.215Z,50.77
2023-03-07T04:06:49.403Z,50.70
2023-03-07T04:07:11.747Z,50.56
2023-03-07T04:07:33.296Z,50.69
2023-03-07T04:07:54.883Z,50.77
2023-03-07T04:08:17.453Z,50.75
2023-03-07T04:08:40.084Z,50.71
2023-03-07T04:09:03.114Z,50.63
2023-03-07T04:09:24.708Z,50.60
2023-03-07T04:09:46.333Z,50.38
2023-03-07T04:10:09.990Z,50.42
2023-03-07T04:10:31.593Z,50.29
2023-03-07T04:10:54.168Z,50.16
2023-03-07T04:11:16.348Z,50.50
2023-03-07T04:11:39.419Z,50.71
2023-03-07T04:12:01.066Z,50.86
2023-03-07T04:12:22.890Z,50.95
2023-03-07T04:12:44.531Z,50.90
2023-03-07T04:13:07.122Z,50.88
2023-03-07T04:13:30.842Z,50.86
2023-03-07T04:13:53.074Z,50.71
2023-03-07T04:14:16.761Z,50.60
2023-03-07T04:14:38.370Z,50.58
2023-03-07T04:14:59.974Z,50.36
2023-03-07T04:15:21.584Z,50.31
2023-03-07T04:15:43.895Z,50.45
2023-03-07T04:16:07.107Z,50.46
2023-03-07T04:16:29.407Z,50.58
2023-03-07T04:16:51.087Z,50.51
2023-03-07T04:17:12.754Z,50.75
2023-03-07T04:17:37.165Z,50.75
2023-03-07T04:17:59.320Z,50.94
2023-03-07T04:18:20.976Z,50.64
2023-03-07T04:18:42.834Z,50.49
2023-03-07T04:19:04.462Z,50.45
2023-03-07T04:19:26.052Z,50.34
2023-03-07T04:19:48.611Z,50.47
2023-03-07T04:20:17.292Z,50.71
2023-03-07T04:20:39.694Z,50.80
2023-03-07T04:21:01.833Z,50.51
2023-03-07T04:21:24.546Z,50.44
2023-03-07T04:21:49.025Z,50.34
2023-03-07T04:22:11.673Z,50.14
2023-03-07T04:22:33.480Z,50.23
2023-03-07T04:22:56.079Z,50.28
2023-03-07T04:23:18.407Z,50.29
2023-03-07T04:23:40.083Z,50.61
2023-03-07T04:24:01.791Z,50.35
2023-03-07T04:24:26.759Z,50.20
2023-03-07T04:24:48.451Z,50.19
2023-03-07T04:25:10.488Z,50.26
2023-03-07T04:25:33.126Z,50.06
2023-03-07T04:25:59.584Z,49.90
2023-03-07T04:26:21.974Z,49.76
2023-03-07T04:26:43.583Z,49.79
2023-03-07T04:27:05.374Z,50.12
2023-03-07T04:27:29.407Z,49.97
2023-03-07T04:27:51.119Z,49.95
2023-03-07T04:28:12.767Z,49.67
2023-03-07T04:28:45.207Z,49.77
2023-03-07T04:29:17.653Z,49.68
2023-03-07T04:29:46.745Z,49.78
2023-03-07T04:30:15.249Z,49.94
2023-03-07T04:30:37.075Z,50.04
2023-03-07T04:30:58.988Z,50.17
2023-03-07T04:31:23.932Z,50.28
2023-03-07T04:31:46.029Z,50.13
2023-03-07T04:32:07.726Z,50.09
2023-03-07T04:32:29.512Z,50.18
2023-03-07T04:32:52.160Z,50.61
2023-03-07T04:33:13.825Z,50.50
2023-03-07T04:33:35.438Z,50.42
2023-03-07T04:33:57.529Z,50.56
2023-03-07T04:34:20.481Z,50.24
2023-03-07T04:34:42.091Z,50.29
2023-03-07T04:35:04.273Z,50.05
2023-03-07T04:35:25.883Z,50.18
2023-03-07T04:35:48.906Z,49.83
2023-03-07T04:36:12.588Z,49.79
2023-03-07T04:36:35.165Z,49.52
2023-03-07T04:36:56.787Z,49.41
2023-03-07T04:37:18.375Z,49.58
2023-03-07T04:37:40.054Z,49.70
2023-03-07T04:38:01.764Z,49.78
2023-03-07T04:38:24.410Z,49.54
2023-03-07T04:38:47.588Z,49.48
2023-03-07T04:39:09.163Z,49.41
2023-03-07T04:39:31.081Z,49.36
2023-03-07T04:39:53.812Z,49.14
2023-03-07T04:40:15.769Z,49.19
2023-03-07T04:40:37.371Z,49.12
2023-03-07T04:41:00.563Z,49.17
2023-03-07T04:41:26.144Z,49.29
2023-03-07T04:41:54.920Z,49.06
2023-03-07T04:42:18.016Z,49.29
2023-03-07T04:42:40.378Z,49.24
2023-03-07T04:43:03.386Z,49.34
2023-03-07T04:43:25.239Z,49.21
2023-03-07T04:43:48.313Z,49.32
2023-03-07T04:44:11.120Z,49.36
2023-03-07T04:44:32.884Z,49.18
2023-03-07T04:44:54.577Z,48.98
2023-03-07T04:45:16.184Z,49.12
2023-03-07T04:45:37.953Z,49.22
2023-03-07T04:46:00.663Z,49.30
2023-03-07T04:46:22.938Z,49.02
2023-03-07T04:46:44.554Z,48.92
2023-03-07T04:47:06.347Z,48.79
2023-03-07T04:47:31.486Z,48.90
2023-03-07T04:47:53.124Z,49.07
2023-03-07T04:48:15.108Z,48.99
2023-03-07T04:48:36.854Z,48.94
2023-03-07T04:48:59.729Z,49.19
2023-03-07T04:49:21.342Z,49.40
2023-03-07T04:49:43.450Z,49.36
2023-03-07T04:50:06.119Z,49.11
2023-03-07T04:50:30.349Z,48.85
2023-03-07T04:50:52.310Z,48.98
2023-03-07T04:51:14.453Z,48.80
2023-03-07T04:51:36.637Z,48.85
2023-03-07T04:51:59.247Z,48.70
2023-03-07T04:52:20.949Z,48.76
2023-03-07T04:52:42.533Z,48.84
2023-03-07T04:53:04.140Z,48.69
2023-03-07T04:53:25.897Z,48.79
2023-03-07T04:53:48.555Z,48.79
2023-03-07T04:54:10.644Z,48.97
2023-03-07T04:54:32.366Z,48.83
2023-03-07T04:54:55.963Z,48.97
2023-03-07T04:55:18.020Z,48.99
2023-03-07T04:55:41.083Z,48.77
2023-03-07T04:56:05.618Z,48.99
2023-03-07T04:56:27.746Z,48.82
2023-03-07T04:56:49.843Z,49.06
2023-03-07T04:57:12.460Z,49.02
2023-03-07T04:57:34.314Z,49.04
2023-03-07T04:57:57.649Z,48.99
2023-03-07T04:58:19.632Z,49.03
2023-03-07T04:58:43.410Z,49.53
2023-03-07T04:59:06.613Z,49.44
2023-03-07T04:59:28.253Z,49.53
2023-03-07T04:59:50.112Z,49.49
2023-03-07T05:00:14.198Z,49.58
2023-03-07T05:00:36.342Z,49.71
2023-03-07T05:00:58.628Z,49.49
2023-03-07T05:01:21.236Z,49.59
2023-03-07T05:01:44.535Z,49.51